Time;durP1;ratioP1;P1;durP2;ratioP2;P2;SDS_P1;SDS_P2;PMS_P1;PMS_P2;Temp;Humidity;BMP_temperature;BMP_pressure;BME280_temperature;BME280_humidity;BME280_pressure;Samples;Min_cycle;Max_cycle;Signal;HPM_P1;HPM_P2
2023/09/21 00:02:30;;;;;;;3.10;1.40;;;18.10;99.90;;;;;;5045906;28;20107;-75
2023/09/21 00:04:55;;;;;;;3.17;1.60;;;18.10;99.90;;;;;;5033274;28;20033;-73
2023/09/21 00:07:21;;;;;;;2.65;1.23;;;18.10;99.90;;;;;;5016665;28;20088;-73
2023/09/21 00:09:47;;;;;;;3.40;1.75;;;18.10;99.90;;;;;;5000372;28;20045;-77
2023/09/21 00:12:12;;;;;;;2.95;1.40;;;18.10;99.90;;;;;;5034924;28;20489;-73
2023/09/21 00:14:38;;;;;;;2.95;1.50;;;18.10;99.90;;;;;;5000404;28;20064;-72
2023/09/21 00:17:04;;;;;;;2.55;1.35;;;18.10;99.90;;;;;;5016820;28;20049;-73
2023/09/21 00:19:30;;;;;;;3.13;1.52;;;18.00;99.90;;;;;;5034234;28;20397;-75
2023/09/21 00:21:58;;;;;;;2.90;1.65;;;18.00;99.90;;;;;;5017282;28;20530;-76
2023/09/21 00:24:24;;;;;;;2.83;1.45;;;18.00;99.90;;;;;;5016434;28;20058;-76
2023/09/21 00:26:51;;;;;;;2.90;1.50;;;17.90;99.90;;;;;;5033929;28;20041;-73
2023/09/21 00:29:17;;;;;;;3.00;1.30;;;18.00;99.90;;;;;;5017143;28;20387;-73
2023/09/21 00:31:42;;;;;;;3.08;1.40;;;17.90;99.90;;;;;;5016156;28;20049;-73
2023/09/21 00:34:08;;;;;;;2.78;1.40;;;17.90;99.90;;;;;;5016383;28;20041;-74
2023/09/21 00:36:35;;;;;;;5.18;1.77;;;17.90;99.90;;;;;;5016496;28;20136;-74
2023/09/21 00:39:02;;;;;;;3.55;1.48;;;18.00;99.90;;;;;;5000199;28;20064;-73
2023/09/21 00:41:31;;;;;;;4.45;1.60;;;18.00;99.90;;;;;;5016865;28;20081;-73
2023/09/21 00:43:58;;;;;;;4.55;1.50;;;17.90;99.90;;;;;;5033783;28;20072;-73
2023/09/21 00:46:27;;;;;;;4.68;1.67;;;17.90;99.90;;;;;;5033875;28;20479;-73
2023/09/21 00:48:53;;;;;;;4.88;1.70;;;17.90;99.90;;;;;;5034347;28;20046;-72
2023/09/21 00:51:19;;;;;;;3.00;1.50;;;17.80;99.90;;;;;;5034006;28;20072;-72
2023/09/21 00:53:47;;;;;;;3.00;1.50;;;17.80;99.90;;;;;;5016562;28;20483;-73
2023/09/21 00:56:17;;;;;;;4.10;1.38;;;17.80;99.90;;;;;;5032352;28;20084;-74
2023/09/21 00:58:47;;;;;;;2.40;1.50;;;17.80;99.90;;;;;;5016534;28;20050;-73
2023/09/21 01:01:27;;;;;;;3.60;1.30;;;17.70;99.90;;;;;;5033299;28;20046;-73
2023/09/21 01:03:58;;;;;;;3.05;1.73;;;17.70;99.90;;;;;;5033612;28;20136;-73
2023/09/21 01:06:23;;;;;;;3.05;1.30;;;17.70;99.90;;;;;;5016116;28;20053;-72
2023/09/21 01:08:50;;;;;;;2.22;1.45;;;17.70;99.90;;;;;;5033473;28;20045;-72
2023/09/21 01:11:17;;;;;;;3.03;1.52;;;17.70;99.90;;;;;;5033405;28;20061;-72
2023/09/21 01:13:43;;;;;;;2.42;1.30;;;17.60;99.90;;;;;;5016369;28;20125;-74
2023/09/21 01:16:12;;;;;;;3.35;1.27;;;17.60;99.90;;;;;;5015941;28;20179;-74
2023/09/21 01:18:41;;;;;;;3.08;1.42;;;17.70;99.90;;;;;;5033995;28;20049;-75
2023/09/21 01:21:13;;;;;;;2.33;1.23;;;17.60;99.90;;;;;;5033445;28;20064;-74
2023/09/21 01:23:49;;;;;;;3.47;1.52;;;17.60;99.90;;;;;;5033972;28;20081;-74
2023/09/21 01:26:16;;;;;;;3.55;1.60;;;17.60;99.90;;;;;;5033789;28;20049;-73
2023/09/21 01:28:47;;;;;;;2.95;1.45;;;17.50;99.90;;;;;;5033579;28;20061;-73
2023/09/21 01:31:13;;;;;;;2.88;1.20;;;17.50;99.90;;;;;;5033736;28;20053;-73
2023/09/21 01:33:39;;;;;;;3.00;1.30;;;17.50;99.90;;;;;;5033336;28;20127;-73
2023/09/21 01:36:08;;;;;;;3.30;1.60;;;17.50;99.90;;;;;;5015783;28;20089;-75
2023/09/21 01:38:35;;;;;;;3.35;1.33;;;17.50;99.90;;;;;;5015881;28;20132;-73
2023/09/21 01:41:01;;;;;;;2.42;1.33;;;17.50;99.90;;;;;;5033190;28;20054;-74
2023/09/21 01:43:27;;;;;;;3.28;1.48;;;17.50;99.90;;;;;;5034011;28;20045;-74
2023/09/21 01:45:54;;;;;;;4.85;1.50;;;17.50;99.90;;;;;;5033194;28;20376;-74
2023/09/21 01:48:20;;;;;;;2.08;1.40;;;17.50;99.90;;;;;;5033169;28;20095;-74
2023/09/21 01:50:50;;;;;;;3.60;1.45;;;17.50;99.90;;;;;;5033119;28;20077;-76
2023/09/21 01:53:18;;;;;;;2.70;1.20;;;17.50;99.90;;;;;;5033167;28;20084;-72
2023/09/21 01:55:47;;;;;;;2.78;1.30;;;17.50;99.90;;;;;;5016322;28;20059;-74
2023/09/21 01:58:14;;;;;;;2.97;1.30;;;17.50;99.90;;;;;;5019752;28;20049;-73
2023/09/21 02:00:48;;;;;;;3.10;1.20;;;17.50;99.90;;;;;;5036863;28;20045;-73
2023/09/21 02:03:28;;;;;;;4.72;1.42;;;17.50;99.90;;;;;;5037225;28;20065;-75
2023/09/21 02:05:57;;;;;;;2.88;1.67;;;17.60;99.90;;;;;;5019692;28;20045;-74
2023/09/21 02:08:23;;;;;;;4.20;1.58;;;17.50;99.90;;;;;;5036633;28;20426;-74
2023/09/21 02:10:50;;;;;;;3.67;1.40;;;17.50;99.90;;;;;;5018992;28;20045;-72
2023/09/21 02:13:16;;;;;;;2.20;1.40;;;17.50;99.90;;;;;;5018996;28;20049;-72
2023/09/21 02:15:43;;;;;;;2.00;1.20;;;17.50;99.90;;;;;;5019561;28;20053;-72
2023/09/21 02:18:10;;;;;;;3.38;1.63;;;17.60;99.90;;;;;;5018996;28;20088;-72
2023/09/21 02:20:49;;;;;;;3.70;1.08;;;17.60;99.90;;;;;;5037402;28;20091;-73
2023/09/21 02:23:15;;;;;;;2.13;1.30;;;17.60;99.90;;;;;;5018736;28;20124;-75
2023/09/21 02:25:41;;;;;;;2.83;1.23;;;17.70;99.90;;;;;;5036365;28;20127;-73
2023/09/21 02:28:14;;;;;;;2.17;1.30;;;17.70;99.90;;;;;;5036304;28;20045;-76
2023/09/21 02:30:43;;;;;;;2.58;1.50;;;17.70;99.90;;;;;;5018957;28;20493;-73
2023/09/21 02:33:09;;;;;;;2.67;1.35;;;17.70;99.90;;;;;;5019280;28;20076;-73
2023/09/21 02:35:35;;;;;;;2.95;1.45;;;17.70;99.90;;;;;;5036512;28;20053;-73
2023/09/21 02:38:05;;;;;;;2.95;1.52;;;17.70;99.90;;;;;;5018315;28;20049;-73
2023/09/21 02:40:30;;;;;;;2.70;1.23;;;17.70;99.90;;;;;;5019543;28;20077;-72
2023/09/21 02:42:56;;;;;;;2.15;1.15;;;17.70;99.90;;;;;;5018580;28;20080;-75
2023/09/21 02:45:26;;;;;;;2.47;1.30;;;17.70;99.90;;;;;;5019001;28;20046;-76
2023/09/21 02:47:54;;;;;;;2.97;1.23;;;17.70;99.90;;;;;;5036026;28;20053;-73
2023/09/21 02:50:27;;;;;;;3.45;1.40;;;17.70;99.90;;;;;;5035964;28;20107;-73
2023/09/21 02:53:11;;;;;;;2.90;1.30;;;17.60;99.90;;;;;;5018794;28;20049;-75
2023/09/21 02:55:39;;;;;;;3.45;1.35;;;17.70;99.90;;;;;;5034656;28;20061;-73
2023/09/21 02:58:12;;;;;;;2.08;1.13;;;17.60;99.90;;;;;;5035834;28;20081;-74
2023/09/21 03:00:43;;;;;;;3.08;1.20;;;17.60;99.90;;;;;;4986549;28;20053;-73
2023/09/21 03:03:22;;;;;;;2.10;1.25;;;17.60;99.90;;;;;;5035334;28;20057;-73
2023/09/21 03:05:49;;;;;;;2.83;1.25;;;17.60;99.90;;;;;;5036047;28;20068;-72
2023/09/21 03:08:15;;;;;;;2.30;1.25;;;17.60;99.90;;;;;;5017425;28;20398;-72
2023/09/21 03:10:44;;;;;;;2.67;1.17;;;17.60;99.90;;;;;;5035613;28;20048;-73
2023/09/21 03:13:16;;;;;;;2.08;1.10;;;17.60;99.90;;;;;;5036153;28;20052;-74
2023/09/21 03:15:44;;;;;;;2.60;1.20;;;17.60;99.90;;;;;;5018446;28;20053;-72
2023/09/21 03:18:10;;;;;;;2.58;1.40;;;17.60;99.90;;;;;;5018806;28;20083;-73
2023/09/21 03:20:36;;;;;;;2.55;1.33;;;17.60;99.90;;;;;;5035733;28;20041;-73
2023/09/21 03:23:09;;;;;;;2.20;1.35;;;17.60;99.90;;;;;;5035623;28;20053;-74
2023/09/21 03:25:40;;;;;;;2.50;1.40;;;17.60;99.90;;;;;;5017892;28;20057;-74
2023/09/21 03:28:18;;;;;;;2.40;1.30;;;17.50;99.90;;;;;;5017849;28;20120;-73
2023/09/21 03:30:48;;;;;;;2.55;1.50;;;17.50;99.90;;;;;;5018437;28;20045;-74
2023/09/21 03:33:19;;;;;;;2.25;1.42;;;17.40;99.90;;;;;;5017741;28;20041;-73
2023/09/21 03:35:45;;;;;;;2.47;1.42;;;17.40;99.90;;;;;;5034904;28;20490;-73
2023/09/21 03:38:12;;;;;;;2.15;1.27;;;17.40;99.90;;;;;;5018396;28;20054;-73
2023/09/21 03:40:41;;;;;;;2.38;1.40;;;17.40;99.90;;;;;;5035542;28;20134;-74
2023/09/21 03:43:10;;;;;;;3.70;1.35;;;17.30;99.90;;;;;;5017682;28;20045;-74
2023/09/21 03:45:38;;;;;;;3.33;1.40;;;17.30;99.90;;;;;;5017464;28;20103;-74
2023/09/21 03:48:06;;;;;;;2.75;1.20;;;17.30;99.90;;;;;;5018319;28;20132;-73
2023/09/21 03:50:32;;;;;;;2.92;1.38;;;17.30;99.90;;;;;;5035585;28;20049;-73
2023/09/21 03:52:59;;;;;;;2.83;1.48;;;17.30;99.90;;;;;;5034858;28;20128;-75
2023/09/21 03:55:25;;;;;;;3.17;1.30;;;17.30;99.90;;;;;;5018099;28;20049;-74
2023/09/21 03:57:51;;;;;;;2.63;1.30;;;17.30;99.90;;;;;;5034628;28;20050;-73
2023/09/21 04:03:01;;;;;;;2.20;1.10;;;17.30;99.90;;;;;;5034958;28;20061;-73
2023/09/21 04:05:29;;;;;;;2.03;1.30;;;17.30;99.90;;;;;;5017115;28;20100;-74
2023/09/21 04:07:55;;;;;;;4.82;1.13;;;17.30;99.90;;;;;;5034460;28;20116;-73
2023/09/21 04:10:21;;;;;;;2.67;1.10;;;17.30;99.90;;;;;;5035194;28;20116;-73
2023/09/21 04:12:47;;;;;;;3.03;1.30;;;17.30;99.90;;;;;;5034409;28;20475;-74
2023/09/21 04:15:13;;;;;;;3.42;1.35;;;17.30;99.90;;;;;;5016996;28;20140;-73
2023/09/21 04:17:39;;;;;;;2.17;1.17;;;17.30;99.90;;;;;;5033388;28;20209;-74
2023/09/21 04:20:12;;;;;;;3.13;1.40;;;17.30;99.90;;;;;;5033875;28;20044;-75
2023/09/21 04:22:43;;;;;;;2.40;1.30;;;17.30;99.90;;;;;;5018012;28;20057;-72
2023/09/21 04:25:11;;;;;;;2.25;1.33;;;17.20;99.90;;;;;;5016711;28;20393;-73
2023/09/21 04:27:39;;;;;;;2.38;1.27;;;17.20;99.90;;;;;;5017421;28;20049;-73
2023/09/21 04:30:08;;;;;;;2.58;1.38;;;17.20;99.90;;;;;;5017360;28;20386;-74
2023/09/21 04:32:35;;;;;;;2.22;1.15;;;17.10;99.90;;;;;;5034725;28;20054;-73
2023/09/21 04:35:05;;;;;;;2.35;1.48;;;17.10;99.90;;;;;;5034042;28;20100;-73
2023/09/21 04:37:33;;;;;;;2.20;1.30;;;17.10;99.90;;;;;;5033992;28;20133;-72
2023/09/21 04:39:59;;;;;;;2.80;1.40;;;17.10;99.90;;;;;;5017353;28;20057;-74
2023/09/21 04:42:28;;;;;;;2.35;1.23;;;17.10;99.90;;;;;;5016476;28;20410;-74
2023/09/21 04:44:55;;;;;;;2.78;1.20;;;17.10;99.90;;;;;;5033852;28;20119;-74
2023/09/21 04:47:21;;;;;;;2.28;1.25;;;17.10;99.90;;;;;;5033830;28;20135;-74
2023/09/21 04:49:48;;;;;;;2.20;1.20;;;17.20;99.90;;;;;;5033693;28;20148;-74
2023/09/21 04:52:13;;;;;;;3.25;1.25;;;17.10;99.90;;;;;;5033781;28;20076;-73
2023/09/21 04:54:39;;;;;;;2.70;1.20;;;17.10;99.90;;;;;;5016862;28;20046;-75
2023/09/21 04:57:05;;;;;;;3.58;1.30;;;17.10;99.90;;;;;;4999978;28;20048;-74
2023/09/21 04:59:30;;;;;;;2.75;1.30;;;17.10;99.90;;;;;;5034196;28;20045;-73
2023/09/21 05:01:56;;;;;;;3.08;1.40;;;17.00;99.90;;;;;;5033555;28;20057;-74
2023/09/21 05:04:22;;;;;;;3.38;1.52;;;17.00;99.90;;;;;;5016757;28;20053;-74
2023/09/21 05:06:47;;;;;;;2.10;1.25;;;16.90;99.90;;;;;;5033823;28;20052;-74
2023/09/21 05:09:15;;;;;;;2.80;1.63;;;17.00;99.90;;;;;;5033432;28;20041;-73
2023/09/21 05:11:40;;;;;;;3.03;1.50;;;17.00;99.90;;;;;;5015520;28;20103;-74
2023/09/21 05:14:07;;;;;;;2.65;1.30;;;17.00;99.90;;;;;;5033870;28;20049;-74
2023/09/21 05:16:34;;;;;;;1.85;1.25;;;17.00;99.90;;;;;;5033416;28;20053;-74
2023/09/21 05:19:00;;;;;;;3.35;1.13;;;17.00;99.90;;;;;;5016109;28;20060;-73
2023/09/21 05:21:26;;;;;;;3.13;1.20;;;17.00;99.90;;;;;;5033369;28;20156;-73
2023/09/21 05:23:52;;;;;;;2.95;1.40;;;17.00;99.90;;;;;;5033479;28;20053;-73
2023/09/21 05:26:18;;;;;;;3.42;1.23;;;17.00;99.90;;;;;;5016118;28;20172;-73
2023/09/21 05:28:44;;;;;;;2.97;1.10;;;16.90;99.90;;;;;;5015753;28;20045;-74
2023/09/21 05:31:10;;;;;;;2.22;1.35;;;16.90;99.90;;;;;;5017098;28;20084;-74
2023/09/21 05:33:38;;;;;;;2.38;1.17;;;16.90;99.90;;;;;;5037381;28;20154;-74
2023/09/21 05:36:04;;;;;;;2.72;1.20;;;16.90;99.90;;;;;;5020103;28;20057;-73
2023/09/21 05:38:33;;;;;;;2.60;1.20;;;17.00;99.90;;;;;;5004217;28;20049;-74
2023/09/21 05:41:03;;;;;;;2.50;1.27;;;17.00;99.90;;;;;;5019773;28;20457;-75
2023/09/21 05:43:29;;;;;;;2.60;1.33;;;17.00;99.90;;;;;;5020056;28;20085;-73
2023/09/21 05:45:55;;;;;;;2.30;1.40;;;17.10;99.90;;;;;;5037168;28;20060;-73
2023/09/21 05:48:21;;;;;;;3.42;1.45;;;17.10;99.90;;;;;;5037173;28;20045;-73
2023/09/21 05:50:47;;;;;;;2.60;1.50;;;17.10;99.90;;;;;;5036968;28;20103;-73
2023/09/21 05:53:13;;;;;;;2.50;1.30;;;17.10;99.90;;;;;;5036882;28;20042;-73
2023/09/21 05:55:40;;;;;;;3.03;1.10;;;17.20;99.90;;;;;;5019376;28;20153;-74
2023/09/21 05:58:06;;;;;;;2.70;1.35;;;17.20;99.90;;;;;;5036983;28;20486;-73
2023/09/21 06:00:32;;;;;;;2.63;1.40;;;17.30;99.90;;;;;;5019760;28;20049;-73
2023/09/21 06:03:01;;;;;;;3.50;1.20;;;17.40;99.90;;;;;;5036492;28;20054;-75
2023/09/21 06:05:29;;;;;;;3.10;1.23;;;17.50;99.90;;;;;;5036826;28;20095;-73
2023/09/21 06:07:56;;;;;;;2.65;1.13;;;17.70;99.90;;;;;;5019584;28;20056;-73
2023/09/21 06:10:25;;;;;;;2.85;1.20;;;17.70;99.90;;;;;;5036540;28;20531;-72
2023/09/21 06:12:51;;;;;;;3.15;1.30;;;17.80;99.90;;;;;;5019103;28;20080;-66
2023/09/21 06:15:17;;;;;;;3.13;1.42;;;17.90;99.90;;;;;;5037411;28;20092;-64
2023/09/21 06:17:43;;;;;;;2.55;1.23;;;18.00;99.90;;;;;;5019241;28;20489;-63
2023/09/21 06:20:11;;;;;;;2.58;1.30;;;18.10;99.90;;;;;;5036630;28;20120;-64
2023/09/21 06:22:37;;;;;;;3.85;1.40;;;18.10;99.90;;;;;;5036533;28;20479;-63
2023/09/21 06:25:05;;;;;;;3.17;1.40;;;18.20;99.90;;;;;;5036475;28;20176;-63
2023/09/21 06:27:37;;;;;;;2.50;1.30;;;18.30;99.90;;;;;;5036296;28;20394;-64
2023/09/21 06:30:03;;;;;;;2.08;1.17;;;18.30;99.90;;;;;;5036351;28;20490;-63
2023/09/21 06:32:29;;;;;;;2.38;1.27;;;18.40;99.90;;;;;;5036159;28;20053;-63
2023/09/21 06:34:55;;;;;;;2.92;1.60;;;18.40;99.90;;;;;;5036187;28;20434;-63
2023/09/21 06:37:22;;;;;;;2.20;1.38;;;18.60;99.90;;;;;;5036790;28;20049;-63
2023/09/21 06:39:48;;;;;;;2.17;1.02;;;18.60;99.90;;;;;;5036185;28;20049;-63
2023/09/21 06:42:16;;;;;;;2.20;1.30;;;18.80;99.90;;;;;;5018218;28;20050;-63
2023/09/21 06:44:42;;;;;;;3.63;1.40;;;18.80;99.90;;;;;;5036062;28;20049;-63
2023/09/21 06:47:08;;;;;;;3.00;1.40;;;18.90;99.90;;;;;;5036066;28;20100;-64
2023/09/21 06:49:36;;;;;;;2.10;1.10;;;18.90;99.90;;;;;;5035968;28;20049;-64
2023/09/21 06:52:04;;;;;;;2.47;1.38;;;18.80;99.90;;;;;;5035929;28;20137;-63
2023/09/21 06:54:31;;;;;;;2.83;1.90;;;18.80;99.90;;;;;;5036518;28;20425;-63
2023/09/21 06:57:03;;;;;;;3.00;1.50;;;18.80;99.90;;;;;;5035932;28;20071;-63
2023/09/21 06:59:31;;;;;;;3.17;1.35;;;18.80;99.90;;;;;;5036729;28;20045;-63
2023/09/21 07:01:56;;;;;;;2.75;1.40;;;18.80;99.90;;;;;;5035359;28;20096;-64
2023/09/21 07:04:22;;;;;;;3.25;1.60;;;18.80;99.90;;;;;;5035666;28;20108;-64
2023/09/21 07:06:50;;;;;;;3.05;1.90;;;18.80;99.90;;;;;;5036221;28;20088;-63
2023/09/21 07:09:16;;;;;;;3.28;1.30;;;18.80;99.90;;;;;;5036000;28;20123;-63
2023/09/21 07:11:42;;;;;;;3.03;1.40;;;18.80;99.90;;;;;;5034899;28;20482;-64
2023/09/21 07:14:08;;;;;;;2.30;1.35;;;18.80;99.90;;;;;;5035126;28;20502;-64
2023/09/21 07:16:34;;;;;;;3.08;1.20;;;18.90;99.90;;;;;;5035071;28;20093;-64
2023/09/21 07:18:59;;;;;;;2.40;1.20;;;18.90;99.90;;;;;;5035084;28;20049;-64
2023/09/21 07:21:26;;;;;;;2.78;1.20;;;19.00;99.90;;;;;;5035006;28;20048;-64
2023/09/21 07:23:51;;;;;;;2.55;1.30;;;19.00;99.90;;;;;;5035009;28;20049;-65
2023/09/21 07:26:17;;;;;;;2.70;1.30;;;19.00;99.90;;;;;;5035673;28;20042;-64
2023/09/21 07:28:45;;;;;;;2.22;1.15;;;19.10;99.90;;;;;;5034995;28;20052;-64
2023/09/21 07:31:11;;;;;;;3.13;1.45;;;19.10;99.90;;;;;;5035782;28;20069;-64
2023/09/21 07:33:37;;;;;;;2.67;1.15;;;19.10;99.90;;;;;;5035000;28;20049;-64
2023/09/21 07:36:03;;;;;;;3.58;1.48;;;19.10;99.90;;;;;;5035042;28;20052;-64
2023/09/21 07:38:29;;;;;;;2.72;1.15;;;19.10;99.90;;;;;;5034976;28;20048;-63
2023/09/21 07:40:54;;;;;;;4.28;1.48;;;19.10;99.90;;;;;;5035235;28;20394;-64
2023/09/21 07:43:20;;;;;;;2.50;1.23;;;19.10;99.90;;;;;;5035011;28;20144;-64
2023/09/21 07:45:48;;;;;;;3.42;1.52;;;19.10;99.90;;;;;;5034951;28;20124;-63
2023/09/21 07:48:16;;;;;;;2.72;1.90;;;19.10;99.90;;;;;;5034832;28;20099;-64
2023/09/21 07:50:41;;;;;;;4.82;1.50;;;19.10;99.90;;;;;;5035181;28;20050;-64
2023/09/21 07:53:08;;;;;;;3.15;1.40;;;19.10;99.90;;;;;;5034292;28;20424;-63
2023/09/21 07:55:36;;;;;;;3.38;1.40;;;19.20;99.90;;;;;;5034452;28;20099;-63
2023/09/21 07:58:02;;;;;;;2.65;1.50;;;19.20;99.90;;;;;;5034913;28;20045;-63
2023/09/21 08:00:29;;;;;;;2.88;1.27;;;19.30;99.90;;;;;;5034310;28;20375;-63
2023/09/21 08:02:55;;;;;;;2.38;1.30;;;19.30;99.90;;;;;;5034777;28;20065;-63
2023/09/21 08:05:20;;;;;;;3.78;1.40;;;19.40;99.90;;;;;;5017208;28;20049;-64
2023/09/21 08:07:49;;;;;;;2.05;1.23;;;19.50;99.90;;;;;;5035108;28;20126;-63
2023/09/21 08:10:15;;;;;;;6.32;1.55;;;19.50;99.90;;;;;;5034964;28;20462;-64
2023/09/21 08:12:41;;;;;;;3.17;1.50;;;19.60;99.90;;;;;;5034371;28;20045;-63
2023/09/21 08:15:10;;;;;;;4.45;1.60;;;19.70;99.90;;;;;;5034148;28;20045;-64
2023/09/21 08:17:36;;;;;;;2.15;1.30;;;19.70;99.90;;;;;;5034021;28;20159;-65
2023/09/21 08:20:04;;;;;;;3.08;1.55;;;19.70;99.90;;;;;;5034238;28;20046;-64
2023/09/21 08:22:29;;;;;;;3.08;1.65;;;19.70;99.90;;;;;;5016589;28;20452;-64
2023/09/21 08:24:55;;;;;;;5.22;1.48;;;19.70;99.90;;;;;;5034218;28;20128;-64
2023/09/21 08:27:22;;;;;;;2.92;1.38;;;19.70;99.90;;;;;;5016744;28;20049;-65
2023/09/21 08:29:49;;;;;;;3.85;1.50;;;19.70;99.90;;;;;;5034294;28;20447;-64
2023/09/21 08:32:15;;;;;;;4.05;1.48;;;19.70;99.90;;;;;;5034499;28;20136;-64
2023/09/21 08:34:44;;;;;;;3.55;1.55;;;19.70;99.90;;;;;;5033975;28;20053;-64
2023/09/21 08:37:10;;;;;;;2.70;1.40;;;19.80;99.90;;;;;;5033967;28;20075;-64
2023/09/21 08:39:36;;;;;;;3.63;1.50;;;19.80;99.90;;;;;;5033894;28;20077;-63
2023/09/21 08:42:03;;;;;;;3.13;1.50;;;19.90;99.90;;;;;;5033887;28;20045;-64
2023/09/21 08:44:30;;;;;;;3.20;1.50;;;19.90;99.90;;;;;;5033734;28;20049;-64
2023/09/21 08:46:56;;;;;;;4.05;1.60;;;19.90;99.90;;;;;;5034239;28;20045;-63
2023/09/21 08:49:23;;;;;;;2.65;1.60;;;19.90;99.90;;;;;;5033787;28;20501;-63
2023/09/21 08:51:54;;;;;;;3.00;1.40;;;19.90;99.90;;;;;;5034427;28;20052;-64
2023/09/21 08:54:23;;;;;;;3.70;1.50;;;19.90;99.90;;;;;;5034439;28;20120;-65
2023/09/21 08:56:55;;;;;;;5.13;1.80;;;19.80;99.90;;;;;;5033883;28;20057;-64
2023/09/21 08:59:20;;;;;;;2.92;1.60;;;19.80;99.90;;;;;;5034479;28;20045;-63
2023/09/21 09:01:47;;;;;;;3.38;1.50;;;19.70;99.90;;;;;;5033361;28;20513;-63
2023/09/21 09:04:14;;;;;;;3.22;1.45;;;19.70;99.90;;;;;;5033514;28;20054;-64
2023/09/21 09:06:40;;;;;;;3.92;1.65;;;19.70;99.90;;;;;;5033576;28;20053;-64
2023/09/21 09:09:07;;;;;;;3.67;1.60;;;19.60;99.90;;;;;;5033525;28;20466;-64
2023/09/21 09:11:40;;;;;;;4.57;1.60;;;19.60;99.90;;;;;;5033393;28;20072;-64
2023/09/21 09:14:16;;;;;;;3.35;1.42;;;19.50;99.90;;;;;;5033459;28;20050;-64
2023/09/21 09:16:43;;;;;;;2.97;1.30;;;19.40;99.90;;;;;;5033506;28;20052;-64
2023/09/21 09:19:13;;;;;;;3.00;1.50;;;19.30;99.90;;;;;;5033954;28;20138;-64
2023/09/21 09:21:41;;;;;;;3.08;1.50;;;19.20;99.90;;;;;;5033361;28;20364;-64
2023/09/21 09:24:08;;;;;;;3.85;1.77;;;19.20;99.90;;;;;;5016120;28;20049;-64
2023/09/21 09:26:38;;;;;;;3.30;1.60;;;19.10;99.90;;;;;;5033416;28;20057;-64
2023/09/21 09:29:09;;;;;;;2.33;1.30;;;18.90;99.90;;;;;;5033337;28;20045;-64
2023/09/21 09:31:41;;;;;;;3.40;1.60;;;18.90;99.90;;;;;;5033046;28;20045;-64
2023/09/21 09:34:09;;;;;;;3.63;1.60;;;18.70;99.90;;;;;;5033747;28;20096;-62
2023/09/21 09:36:35;;;;;;;3.42;1.92;;;18.60;99.90;;;;;;5033162;28;20050;-64
2023/09/21 09:39:07;;;;;;;3.00;1.58;;;18.50;99.90;;;;;;5033182;28;20085;-63
2023/09/21 09:41:37;;;;;;;3.03;1.50;;;18.40;99.90;;;;;;5033283;28;20060;-63
2023/09/21 09:44:07;;;;;;;3.20;1.60;;;18.40;99.90;;;;;;5033238;28;20052;-63
2023/09/21 09:46:37;;;;;;;2.60;1.70;;;18.30;99.90;;;;;;5033199;28;20394;-63
2023/09/21 09:49:04;;;;;;;2.97;1.80;;;18.30;99.90;;;;;;5033242;28;20483;-63
2023/09/21 09:51:40;;;;;;;2.85;1.80;;;18.30;99.90;;;;;;5033046;28;20095;-64
2023/09/21 09:54:08;;;;;;;;;;;18.20;99.90;;;;;;5016413;28;20056;-64
2023/09/21 09:56:41;;;;;;;2.83;1.80;;;18.20;99.90;;;;;;5033111;28;19925;-64
2023/09/21 09:59:11;;;;;;;3.42;1.80;;;18.20;99.90;;;;;;5033089;28;20049;-64
2023/09/21 10:01:39;;;;;;;4.22;1.70;;;18.20;99.90;;;;;;5032901;28;20045;-64
2023/09/21 10:04:07;;;;;;;3.33;1.60;;;18.10;99.90;;;;;;5033408;28;20494;-63
2023/09/21 10:06:36;;;;;;;3.42;1.90;;;18.20;99.90;;;;;;5033587;28;20049;-64
2023/09/21 10:09:08;;;;;;;3.72;1.75;;;18.20;99.90;;;;;;5032845;28;20128;-63
2023/09/21 10:11:36;;;;;;;3.85;1.70;;;18.20;99.90;;;;;;5033415;28;20050;-64
2023/09/21 10:14:03;;;;;;;3.58;1.90;;;18.20;99.90;;;;;;5033514;28;20046;-65
2023/09/21 10:16:31;;;;;;;2.72;1.67;;;18.20;99.90;;;;;;5033092;28;20084;-64
2023/09/21 10:19:00;;;;;;;4.25;1.70;;;18.10;99.90;;;;;;5037082;28;20059;-64
2023/09/21 10:21:35;;;;;;;3.50;1.75;;;18.10;99.90;;;;;;5036443;28;20124;-64
2023/09/21 10:24:13;;;;;;;2.65;1.80;;;18.00;99.90;;;;;;5036202;28;20498;-64
2023/09/21 10:26:45;;;;;;;4.70;2.17;;;17.90;99.90;;;;;;5018939;28;20054;-64
2023/09/21 10:29:12;;;;;;;3.70;1.90;;;17.90;99.90;;;;;;5036406;28;20128;-63
2023/09/21 10:31:45;;;;;;;5.53;2.30;;;17.90;99.90;;;;;;5035987;28;20043;-64
2023/09/21 10:34:19;;;;;;;3.83;1.88;;;17.90;99.90;;;;;;5036248;28;20060;-64
2023/09/21 10:36:56;;;;;;;5.03;2.50;;;17.90;99.90;;;;;;5036225;28;20049;-64
2023/09/21 10:39:25;;;;;;;3.40;2.08;;;17.90;99.90;;;;;;5036387;28;20045;-64
2023/09/21 10:41:56;;;;;;;4.07;2.47;;;17.90;99.90;;;;;;5036114;28;20099;-64
2023/09/21 10:44:52;;;;;;;4.38;2.40;;;17.90;99.90;;;;;;5036381;28;20055;-64
2023/09/21 10:47:25;;;;;;;3.88;2.45;;;17.90;99.90;;;;;;5035929;28;20080;-63
2023/09/21 10:49:51;;;;;;;4.10;2.72;;;17.80;99.90;;;;;;5036433;28;20045;-64
2023/09/21 10:52:17;;;;;;;4.38;2.38;;;17.80;99.90;;;;;;5035796;28;20095;-64
2023/09/21 10:54:43;;;;;;;4.90;3.13;;;17.70;99.90;;;;;;5036439;28;20048;-63
2023/09/21 10:57:11;;;;;;;7.43;3.30;;;17.80;99.90;;;;;;5035869;28;20103;-63
2023/09/21 10:59:37;;;;;;;6.15;2.97;;;17.80;99.90;;;;;;5035857;28;20105;-63
2023/09/21 11:02:03;;;;;;;6.35;3.17;;;17.90;99.90;;;;;;5035434;28;20062;-64
2023/09/21 11:04:28;;;;;;;4.22;2.67;;;17.90;99.90;;;;;;5035760;28;20053;-62
2023/09/21 11:06:54;;;;;;;4.20;3.05;;;17.90;99.90;;;;;;5018754;28;20046;-63
2023/09/21 11:09:20;;;;;;;7.40;3.05;;;18.00;99.90;;;;;;5036210;28;20056;-63
2023/09/21 11:11:47;;;;;;;3.88;2.92;;;18.00;99.90;;;;;;5035735;28;20037;-63
2023/09/21 11:14:13;;;;;;;4.47;3.00;;;18.00;99.90;;;;;;5036046;28;20433;-64
2023/09/21 11:16:38;;;;;;;4.57;2.88;;;18.00;99.90;;;;;;5035095;28;20124;-63
2023/09/21 11:19:05;;;;;;;4.72;2.63;;;18.00;99.90;;;;;;5035880;28;20100;-63
2023/09/21 11:21:31;;;;;;;5.28;2.95;;;18.00;99.90;;;;;;5035643;28;20117;-62
2023/09/21 11:23:58;;;;;;;4.28;2.72;;;18.00;99.90;;;;;;5035030;28;20514;-63
2023/09/21 11:26:25;;;;;;;4.50;2.67;;;18.00;99.90;;;;;;5035277;28;20037;-64
2023/09/21 11:28:58;;;;;;;4.05;3.10;;;18.00;99.90;;;;;;5034105;28;20057;-64
2023/09/21 11:31:24;;;;;;;4.82;3.08;;;18.00;99.90;;;;;;5035207;28;20049;-64
2023/09/21 11:33:50;;;;;;;5.18;2.70;;;18.00;99.90;;;;;;5035153;28;20059;-65
2023/09/21 11:36:16;;;;;;;4.80;2.90;;;18.00;99.90;;;;;;5017436;28;20486;-65
2023/09/21 11:38:42;;;;;;;4.20;2.97;;;18.00;99.90;;;;;;5035590;28;20049;-64
2023/09/21 11:41:08;;;;;;;5.13;3.05;;;18.00;99.90;;;;;;5034921;28;20077;-64
2023/09/21 11:43:34;;;;;;;4.60;2.75;;;17.90;99.90;;;;;;5034951;28;20128;-63
2023/09/21 11:46:03;;;;;;;3.90;2.25;;;18.00;99.90;;;;;;5035213;28;20084;-64
2023/09/21 11:48:31;;;;;;;4.60;2.40;;;17.90;99.90;;;;;;5034615;28;20048;-63
2023/09/21 11:50:57;;;;;;;3.47;2.30;;;17.80;99.90;;;;;;5034641;28;20387;-63
2023/09/21 11:53:22;;;;;;;3.47;1.98;;;17.70;99.90;;;;;;5034422;28;20060;-63
2023/09/21 11:55:48;;;;;;;3.03;2.33;;;17.70;99.90;;;;;;5034482;28;20096;-64
2023/09/21 11:58:15;;;;;;;3.53;1.88;;;17.70;99.90;;;;;;5034826;28;20102;-63
2023/09/21 12:00:43;;;;;;;2.63;1.45;;;17.70;99.90;;;;;;5016432;28;20053;-64
2023/09/21 12:03:16;;;;;;;2.13;1.42;;;17.60;99.90;;;;;;5033928;28;20049;-63
2023/09/21 12:05:43;;;;;;;2.75;1.52;;;17.50;99.90;;;;;;5034415;28;20053;-63
2023/09/21 12:08:16;;;;;;;2.35;1.30;;;17.50;99.90;;;;;;5034526;28;20072;-63
2023/09/21 12:10:45;;;;;;;2.65;1.33;;;17.60;99.90;;;;;;5034689;28;20500;-64
2023/09/21 12:13:11;;;;;;;3.05;1.40;;;17.70;99.90;;;;;;5034361;28;20092;-63
2023/09/21 12:15:38;;;;;;;3.40;1.40;;;17.90;99.90;;;;;;5034567;28;20482;-64
2023/09/21 12:18:05;;;;;;;2.00;1.30;;;18.00;99.90;;;;;;5034019;28;20569;-63
2023/09/21 12:20:31;;;;;;;2.42;1.35;;;18.00;99.90;;;;;;5034264;28;20041;-63
2023/09/21 12:22:57;;;;;;;2.65;1.60;;;18.10;99.90;;;;;;5034008;28;20050;-64
2023/09/21 12:25:24;;;;;;;3.00;1.60;;;18.10;99.90;;;;;;5034116;28;20052;-65
2023/09/21 12:27:50;;;;;;;2.70;1.52;;;18.20;99.90;;;;;;5034074;28;20053;-64
2023/09/21 12:30:17;;;;;;;3.40;1.63;;;18.30;99.90;;;;;;5033902;28;20042;-63
2023/09/21 12:32:43;;;;;;;2.33;1.42;;;18.40;99.90;;;;;;5034215;28;20375;-63
2023/09/21 12:35:11;;;;;;;3.60;1.30;;;18.50;99.90;;;;;;5034107;28;20053;-63
2023/09/21 12:37:39;;;;;;;3.03;1.50;;;18.60;99.90;;;;;;5033830;28;20103;-62
2023/09/21 12:40:11;;;;;;;2.05;1.27;;;18.60;99.90;;;;;;5034211;28;20064;-62
2023/09/21 12:42:45;;;;;;;2.65;1.10;;;18.50;99.90;;;;;;5034490;28;20103;-62
2023/09/21 12:45:15;;;;;;;4.55;1.60;;;18.20;99.90;;;;;;5033931;28;20060;-62
2023/09/21 12:47:41;;;;;;;2.05;1.17;;;18.00;99.90;;;;;;5033736;28;20056;-63
2023/09/21 12:50:09;;;;;;;3.42;1.40;;;17.90;99.90;;;;;;5034013;28;20064;-62
2023/09/21 12:52:35;;;;;;;2.22;1.00;;;17.80;99.90;;;;;;5032769;28;20420;-62
2023/09/21 12:55:05;;;;;;;3.05;1.40;;;17.80;99.90;;;;;;5033746;28;20049;-62